Pride Of Canterbury — MPQZ6 — position and weather

sailwx.info

Track history (hours):
 
Tides and Currents Weather Stations Pressure Air Temp Water Temp Dewpoint Dewpoint Depression Visibility Wind Speed Wind Dir Waves Ship Positions

Pride Of Canterbury

Operator: P & O Ferries

Last reported at 2017-Feb-22 03:33 UTC. Time now 2017-Feb-22 04:24 UTC.
Position N 50°58' E 001°51'.

Length 180 m; draft 5.7 m.

Type: Passenger vessel. MMSI: 232001060.

Date/timePositionNaut miles runAvg speedWind from/ knotsBaromVisibWave heightAir tempDewpointWater temp
2017-Feb-22 03:33N 50°58' E 001°51'0 0.0
2017-Feb-22 02:33N 50°58' E 001°51'1313.2
2017-Feb-22 01:33N 51°03' E 001°31'8 6.1
2017-Feb-22 00:11N 51°07' E 001°20'812.1
2017-Feb-21 23:33N 51°04' E 001°31'1413.9
2017-Feb-21 22:33N 50°58' E 001°51'1 1.3
2017-Feb-21 21:33N 50°58' E 001°49'1818.5
2017-Feb-21 20:34N 51°06' E 001°23'2 1.9
2017-Feb-21 19:32N 51°07' E 001°20'1211.9
2017-Feb-21 18:33N 51°03' E 001°37'10 9.4
2017-Feb-21 17:29N 50°58' E 001°51'6 6.1
2017-Feb-21 16:33N 50°58' E 001°42'1611.0
2017-Feb-21 15:03N 51°07' E 001°20'1 2.2
2017-Feb-21 14:34N 51°07' E 001°22'1818.2
2017-Feb-21 13:34N 50°58' E 001°47'3 2.6
2017-Feb-21 12:33N 50°58' E 001°51'1514.8
2017-Feb-21 11:34N 51°03' E 001°29'7 5.1
2017-Feb-21 10:12N 51°07' E 001°20'812.4
2017-Feb-21 09:33N 51°04' E 001°32'1413.4
2017-Feb-21 08:33N 50°58' E 001°51'3 3.3
2017-Feb-21 07:34N 50°58' E 001°46'1818.0
2017-Feb-21 06:33N 51°07' E 001°21'1 0.7
2017-Feb-21 05:32N 51°07' E 001°20'1010.4
2017-Feb-21 04:33N 51°03' E 001°34'1111.2
2017-Feb-21 03:32N 50°58' E 001°51'0 0.0
2017-Feb-21 02:33N 50°58' E 001°51'1312.8
2017-Feb-21 01:33N 51°03' E 001°32'9 8.8
2017-Feb-21 00:33N 51°07' E 001°20'7 7.0
2017-Feb-20 23:33N 51°05' E 001°30'1514.7
2017-Feb-20 22:33N 50°58' E 001°51'1 1.0
2017-Feb-20 21:33N 50°58' E 001°49'1818.0
2017-Feb-20 20:34N 51°06' E 001°23'3 2.4
2017-Feb-20 19:28N 51°07' E 001°20'1011.4
2017-Feb-20 18:34N 51°02' E 001°34'1111.3
2017-Feb-20 17:33N 50°58' E 001°51'4 3.7
2017-Feb-20 16:33N 50°58' E 001°45'1818.3
2017-Feb-20 15:33N 51°07' E 001°20'0 0.1
2017-Feb-20 14:33N 51°07' E 001°20'1817.9
2017-Feb-20 13:33N 50°58' E 001°45'4 3.8
2017-Feb-20 12:32N 50°58' E 001°51'1413.9
2017-Feb-20 11:34N 51°03' E 001°31'8 6.1
2017-Feb-20 10:12N 51°07' E 001°20'914.2
2017-Feb-20 09:33N 51°03' E 001°33'1312.1
2017-Feb-20 08:31N 50°58' E 001°51'4 4.3
2017-Feb-20 07:33N 50°58' E 001°44'1817.4
2017-Feb-20 06:32N 51°07' E 001°20'0 0.0
2017-Feb-20 05:05N 51°07' E 001°20'712.5
2017-Feb-20 04:33N 51°05' E 001°30'1514.8
2017-Feb-20 03:33N 50°58' E 001°51'0 0.0
2017-Feb-20 02:32N 50°58' E 001°51'1616.1
2017-Feb-20 01:34N 51°04' E 001°28'6 5.7
2017-Feb-20 00:31N 51°07' E 001°20'7 7.0
2017-Feb-19 23:34N 51°05' E 001°30'1514.3
2017-Feb-19 22:31N 50°58' E 001°51'1 1.4
2017-Feb-19 21:34N 50°58' E 001°49'1818.1
2017-Feb-19 20:33N 51°06' E 001°23'2 1.8
2017-Feb-19 19:33N 51°07' E 001°21'1716.7
2017-Feb-19 18:33N 50°59' E 001°43'5 4.8
2017-Feb-19 17:33N 50°58' E 001°51'1010.1
2017-Feb-19 16:33N 51°00' E 001°36'1211.5
2017-Feb-19 15:31N 51°07' E 001°20'3 2.8
2017-Feb-19 14:33N 51°07' E 001°24'1818.1
2017-Feb-19 13:34N 50°58' E 001°50'1 0.8
2017-Feb-19 12:33N 50°58' E 001°51'1616.0
2017-Feb-19 11:33N 51°04' E 001°27'5 5.0
2017-Feb-19 10:27N 51°07' E 001°20'1213.3
2017-Feb-19 09:33N 51°02' E 001°37'10 9.6
2017-Feb-19 08:33N 50°58' E 001°51'7 7.5
2017-Feb-19 07:33N 50°59' E 001°39'1514.4
2017-Feb-19 06:32N 51°07' E 001°20'0 0.0
2017-Feb-19 05:27N 51°07' E 001°20'6 6.9
2017-Feb-19 04:33N 51°04' E 001°29'1515.3
2017-Feb-19 03:33N 50°58' E 001°51'0 0.0
2017-Feb-19 02:33N 50°58' E 001°51'1010.3
2017-Feb-19 01:33N 51°01' E 001°36'1211.0
2017-Feb-19 00:30N 51°07' E 001°20'1010.2
2017-Feb-18 23:33N 51°04' E 001°34'1211.9
2017-Feb-18 22:33N 50°58' E 001°51'4 4.2
2017-Feb-18 21:33N 50°58' E 001°44'1817.8
2017-Feb-18 20:33N 51°07' E 001°20'2 1.9
2017-Feb-18 19:33N 51°07' E 001°23'8 8.3
2017-Feb-18 18:34N 51°03' E 001°34'1211.0
2017-Feb-18 17:31N 50°58' E 001°51'3 3.7
2017-Feb-18 16:33N 50°58' E 001°45'1918.3
2017-Feb-18 15:32N 51°07' E 001°20'2 1.7
2017-Feb-18 14:33N 51°07' E 001°23'1717.5
2017-Feb-18 13:33N 50°58' E 001°47'3 2.7
2017-Feb-18 12:33N 50°58' E 001°51'1414.0
2017-Feb-18 11:33N 51°03' E 001°31'8 7.4
2017-Feb-18 10:30N 51°07' E 001°20'1010.9
2017-Feb-18 09:34N 51°03' E 001°34'1111.2
2017-Feb-18 08:32N 50°58' E 001°51'5 5.0
2017-Feb-18 07:33N 50°58' E 001°43'1716.9
2017-Feb-18 06:33N 51°07' E 001°21'0 0.3
2017-Feb-18 05:30N 51°07' E 001°20'9 9.5
2017-Feb-18 04:33N 51°04' E 001°33'1312.5
2017-Feb-18 03:33N 50°58' E 001°51'0 0.0
2017-Feb-18 02:32N 50°58' E 001°51'1515.2
2017-Feb-18 01:33N 51°04' E 001°29'7 6.4
2017-Feb-18 00:30N 51°07' E 001°20'8 8.2
2017-Feb-17 23:34N 51°06' E 001°32'1414.3
2017-Feb-17 22:33N 50°58' E 001°51'0 0.4
2017-Feb-17 21:31N 50°58' E 001°50'1616.9
2017-Feb-17 20:33N 51°04' E 001°26'5 4.5
2017-Feb-17 19:22N 51°07' E 001°20'1114.2
2017-Feb-17 18:33N 51°02' E 001°36'1010.1
2017-Feb-17 17:33N 50°58' E 001°51'8 7.9
2017-Feb-17 16:33N 50°59' E 001°38'14 7.0
2017-Feb-17 14:33N 51°07' E 001°21'1818.4
2017-Feb-17 13:34N 50°58' E 001°46'3 2.7
2017-Feb-17 12:34N 50°58' E 001°51'1717.2
2017-Feb-17 11:34N 51°04' E 001°25'4 3.6
2017-Feb-17 10:33N 51°07' E 001°21'1919.2
2017-Feb-17 09:33N 50°58' E 001°48'0 0.2
2017-Feb-17 08:33N 50°58' E 001°48'1817.7
2017-Feb-17 07:33N 51°06' E 001°23'2 2.2
2017-Feb-17 06:33N 51°07' E 001°20'0 0.0
2017-Feb-17 05:25N 51°07' E 001°20'1315.4
2017-Feb-17 04:33N 51°02' E 001°39'8 8.1
2017-Feb-17 03:31N 50°58' E 001°51'1515.5
2017-Feb-17 02:33N 51°03' E 001°28'7 6.9
2017-Feb-17 01:33N 51°07' E 001°20'0 0.1
2017-Feb-17 00:31N 51°07' E 001°20'7 6.9
2017-Feb-16 23:33N 51°06' E 001°30'1515.2
2017-Feb-16 22:33N 50°58' E 001°51'2 1.7
2017-Feb-16 21:34N 50°58' E 001°48'1514.6
2017-Feb-16 20:33N 51°04' E 001°27'5 4.7
2017-Feb-16 19:24N 51°07' E 001°20'1214.6
2017-Feb-16 18:34N 51°02' E 001°37'9 9.3
2017-Feb-16 17:33N 50°58' E 001°51'8 8.1
2017-Feb-16 16:33N 50°60' E 001°38'1411.8
2017-Feb-16 15:22N 51°07' E 001°20'3 3.8
2017-Feb-16 14:33N 51°07' E 001°25'1716.9
2017-Feb-16 13:34N 50°58' E 001°48'2 1.6
2017-Feb-16 12:32N 50°58' E 001°51'1616.2
2017-Feb-16 11:33N 51°04' E 001°28'6 5.5
2017-Feb-16 10:32N 51°07' E 001°20'1212.2
2017-Feb-16 09:33N 51°01' E 001°36'10 9.7
2017-Feb-16 08:33N 50°58' E 001°51'6 6.2
2017-Feb-16 07:34N 50°58' E 001°41'1616.0
2017-Feb-16 06:33N 51°07' E 001°20'0 0.0
2017-Feb-16 05:25N 51°07' E 001°20'1011.2
2017-Feb-16 04:33N 51°04' E 001°34'1211.9
2017-Feb-16 03:33N 50°58' E 001°51'0 0.0
2017-Feb-16 02:33N 50°58' E 001°51'1515.1
2017-Feb-16 01:33N 51°03' E 001°28'7 5.8
2017-Feb-16 00:23N 51°07' E 001°20'8 9.6
2017-Feb-15 23:34N 51°04' E 001°32'1413.6
2017-Feb-15 22:33N 50°58' E 001°51'2 2.3
2017-Feb-15 21:33N 50°58' E 001°47'1717.4
2017-Feb-15 20:33N 51°06' E 001°23'2 1.9
2017-Feb-15 19:30N 51°07' E 001°20'1616.9
2017-Feb-15 18:33N 50°59' E 001°42'6 5.5
2017-Feb-15 17:31N 50°58' E 001°51'1212.1
2017-Feb-15 16:33N 51°02' E 001°34'10 8.9
2017-Feb-15 15:26N 51°07' E 001°20'8 9.0
2017-Feb-15 14:34N 51°06' E 001°32'1413.3
2017-Feb-15 13:31N 50°58' E 001°51'2 2.4
2017-Feb-15 12:33N 50°58' E 001°47'1716.5
2017-Feb-15 11:34N 51°06' E 001°24'3 2.7
2017-Feb-15 10:27N 51°07' E 001°20'1112.3
2017-Feb-15 09:33N 51°01' E 001°35'1110.2
2017-Feb-15 08:31N 50°58' E 001°51'5 5.6
2017-Feb-15 07:33N 50°58' E 001°43'1716.5
2017-Feb-15 06:31N 51°07' E 001°20'5 2.7
2017-Feb-15 04:33N 51°06' E 001°28'1616.2
2017-Feb-15 03:33N 50°58' E 001°51'0 0.2
2017-Feb-15 02:33N 50°58' E 001°51'1514.7
2017-Feb-15 01:33N 51°02' E 001°29'8 6.2
2017-Feb-15 00:20N 51°07' E 001°20'810.0
2017-Feb-14 23:34N 51°05' E 001°32'1413.9
2017-Feb-14 22:34N 50°58' E 001°51'3 3.4
2017-Feb-14 21:33N 50°58' E 001°46'1717.2
2017-Feb-14 20:33N 51°07' E 001°22'1 1.4
2017-Feb-14 19:30N 51°07' E 001°20'1314.2
2017-Feb-14 18:34N 51°01' E 001°39'8 8.1
2017-Feb-14 17:33N 50°58' E 001°51'7 6.9
2017-Feb-14 16:34N 50°59' E 001°40'1511.7
2017-Feb-14 15:15N 51°07' E 001°20'4 6.2
2017-Feb-14 14:33N 51°06' E 001°27'1716.5
2017-Feb-14 13:33N 50°58' E 001°50'1 0.7
2017-Feb-14 12:33N 50°58' E 001°51'1515.6
2017-Feb-14 11:33N 51°03' E 001°28'6 5.9
2017-Feb-14 10:28N 51°07' E 001°20'1011.3
2017-Feb-14 09:34N 51°02' E 001°34'1111.3
2017-Feb-14 08:33N 50°58' E 001°51'6 5.8
2017-Feb-14 07:33N 50°58' E 001°42'1616.3
2017-Feb-14 06:33N 51°07' E 001°20'0 0.0
2017-Feb-14 05:28N 51°07' E 001°20'1011.1
2017-Feb-14 04:33N 51°03' E 001°35'1111.0
2017-Feb-14 03:31N 50°58' E 001°51'0 0.0
2017-Feb-14 02:33N 50°58' E 001°51'1716.8
2017-Feb-14 01:34N 51°04' E 001°26'5 4.8
2017-Feb-14 00:28N 51°07' E 001°20'1213.7
2017-Feb-13 23:33N 51°01' E 001°37'9 9.3
2017-Feb-13 22:33N 50°58' E 001°51'8 7.7
2017-Feb-13 21:33N 50°59' E 001°39'1514.8
2017-Feb-13 20:33N 51°07' E 001°20'2 2.2
2017-Feb-13 19:33N 51°07' E 001°24'1313.3
2017-Feb-13 18:34N 50°59' E 001°41'6 6.4
2017-Feb-13 17:34N 50°58' E 001°51'1313.4
2017-Feb-13 16:33N 51°02' E 001°31'9 8.3
2017-Feb-13 15:32N 51°07' E 001°20'5 4.9
2017-Feb-13 14:34N 51°07' E 001°28'1616.0
2017-Feb-13 13:34N 50°58' E 001°49'2 1.5
2017-Feb-13 12:33N 50°58' E 001°52'1616.3
2017-Feb-13 11:34N 51°04' E 001°27'6 5.6
2017-Feb-13 10:31N 51°07' E 001°20'1414.3
2017-Feb-13 09:33N 51°01' E 001°39'8 8.1
2017-Feb-13 08:33N 50°58' E 001°51'7 7.3
2017-Feb-13 07:33N 50°59' E 001°40'1515.0
2017-Feb-13 06:33N 51°07' E 001°20'0 0.0
2017-Feb-13 05:31N 51°07' E 001°20'5 5.3
2017-Feb-13 04:34N 51°06' E 001°28'1616.3
2017-Feb-13 03:34N 50°58' E 001°51'0 0.2
2017-Feb-13 02:31N 50°58' E 001°51'1414.0
2017-Feb-13 01:33N 51°01' E 001°30'9 9.0
2017-Feb-13 00:32N 51°07' E 001°20'7 7.6
2017-Feb-12 23:34N 51°04' E 001°31'1413.9
2017-Feb-12 22:32N 50°58' E 001°51'1 1.2
2017-Feb-12 21:33N 50°58' E 001°49'1515.0
2017-Feb-12 20:33N 51°03' E 001°27'6 5.3
2017-Feb-12 19:27N 51°07' E 001°20'1010.6
2017-Feb-12 18:34N 51°03' E 001°33'1212.1
2017-Feb-12 17:33N 50°58' E 001°51'5 5.1
2017-Feb-12 16:33N 50°58' E 001°43'1716.9
2017-Feb-12 15:33N 51°07' E 001°20'2 2.0
2017-Feb-12 14:33N 51°07' E 001°23'1717.4
2017-Feb-12 13:33N 50°58' E 001°47'2 2.4
2017-Feb-12 12:33N 50°58' E 001°51'1717.3
2017-Feb-12 11:33N 51°05' E 001°26'4 4.0
2017-Feb-12 10:30N 51°07' E 001°20'1617.2
2017-Feb-12 09:33N 50°59' E 001°42'5 5.4
2017-Feb-12 08:33N 50°58' E 001°51'1212.2
2017-Feb-12 07:33N 50°60' E 001°32'11 9.9
2017-Feb-12 06:29N 51°07' E 001°20'0 0.0
2017-Feb-12 05:32N 51°07' E 001°20'3 3.6
2017-Feb-12 04:33N 51°06' E 001°25'1817.9
2017-Feb-12 03:33N 50°58' E 001°51'  
Track history (hours):
 
Tides and Currents Weather Stations Pressure Air Temp Water Temp Dewpoint Dewpoint Depression Visibility Wind Speed Wind Dir Waves Ship Positions

Pride Of Canterbury

Operator: P & O Ferries

Last reported at 2017-Feb-22 03:33 UTC. Time now 2017-Feb-22 04:24 UTC.
Position N 50°58' E 001°51'.

Length 180 m; draft 5.7 m.

Type: Passenger vessel. MMSI: 232001060.

Date/timePositionNaut miles runAvg speedWind from/ knotsBaromVisibWave heightAir tempDewpointWater temp
2017-Feb-22 03:33N 50°58' E 001°51'0 0.0
2017-Feb-22 02:33N 50°58' E 001°51'1313.2
2017-Feb-22 01:33N 51°03' E 001°31'8 6.1
2017-Feb-22 00:11N 51°07' E 001°20'812.1
2017-Feb-21 23:33N 51°04' E 001°31'1413.9
2017-Feb-21 22:33N 50°58' E 001°51'1 1.3
2017-Feb-21 21:33N 50°58' E 001°49'1818.5
2017-Feb-21 20:34N 51°06' E 001°23'2 1.9
2017-Feb-21 19:32N 51°07' E 001°20'1211.9
2017-Feb-21 18:33N 51°03' E 001°37'10 9.4
2017-Feb-21 17:29N 50°58' E 001°51'6 6.1
2017-Feb-21 16:33N 50°58' E 001°42'1611.0
2017-Feb-21 15:03N 51°07' E 001°20'1 2.2
2017-Feb-21 14:34N 51°07' E 001°22'1818.2
2017-Feb-21 13:34N 50°58' E 001°47'3 2.6
2017-Feb-21 12:33N 50°58' E 001°51'1514.8
2017-Feb-21 11:34N 51°03' E 001°29'7 5.1
2017-Feb-21 10:12N 51°07' E 001°20'812.4
2017-Feb-21 09:33N 51°04' E 001°32'1413.4
2017-Feb-21 08:33N 50°58' E 001°51'3 3.3
2017-Feb-21 07:34N 50°58' E 001°46'1818.0
2017-Feb-21 06:33N 51°07' E 001°21'1 0.7
2017-Feb-21 05:32N 51°07' E 001°20'1010.4
2017-Feb-21 04:33N 51°03' E 001°34'1111.2
2017-Feb-21 03:32N 50°58' E 001°51'0 0.0
2017-Feb-21 02:33N 50°58' E 001°51'1312.8
2017-Feb-21 01:33N 51°03' E 001°32'9 8.8
2017-Feb-21 00:33N 51°07' E 001°20'7 7.0
2017-Feb-20 23:33N 51°05' E 001°30'1514.7
2017-Feb-20 22:33N 50°58' E 001°51'1 1.0
2017-Feb-20 21:33N 50°58' E 001°49'1818.0
2017-Feb-20 20:34N 51°06' E 001°23'3 2.4
2017-Feb-20 19:28N 51°07' E 001°20'1011.4
2017-Feb-20 18:34N 51°02' E 001°34'1111.3
2017-Feb-20 17:33N 50°58' E 001°51'4 3.7
2017-Feb-20 16:33N 50°58' E 001°45'1818.3
2017-Feb-20 15:33N 51°07' E 001°20'0 0.1
2017-Feb-20 14:33N 51°07' E 001°20'1817.9
2017-Feb-20 13:33N 50°58' E 001°45'4 3.8
2017-Feb-20 12:32N 50°58' E 001°51'1413.9
2017-Feb-20 11:34N 51°03' E 001°31'8 6.1
2017-Feb-20 10:12N 51°07' E 001°20'914.2
2017-Feb-20 09:33N 51°03' E 001°33'1312.1
2017-Feb-20 08:31N 50°58' E 001°51'4 4.3
2017-Feb-20 07:33N 50°58' E 001°44'1817.4
2017-Feb-20 06:32N 51°07' E 001°20'0 0.0
2017-Feb-20 05:05N 51°07' E 001°20'712.5
2017-Feb-20 04:33N 51°05' E 001°30'1514.8
2017-Feb-20 03:33N 50°58' E 001°51'0 0.0
2017-Feb-20 02:32N 50°58' E 001°51'1616.1
2017-Feb-20 01:34N 51°04' E 001°28'6 5.7
2017-Feb-20 00:31N 51°07' E 001°20'7 7.0
2017-Feb-19 23:34N 51°05' E 001°30'1514.3
2017-Feb-19 22:31N 50°58' E 001°51'1 1.4
2017-Feb-19 21:34N 50°58' E 001°49'1818.1
2017-Feb-19 20:33N 51°06' E 001°23'2 1.8
2017-Feb-19 19:33N 51°07' E 001°21'1716.7
2017-Feb-19 18:33N 50°59' E 001°43'5 4.8
2017-Feb-19 17:33N 50°58' E 001°51'1010.1
2017-Feb-19 16:33N 51°00' E 001°36'1211.5
2017-Feb-19 15:31N 51°07' E 001°20'3 2.8
2017-Feb-19 14:33N 51°07' E 001°24'1818.1
2017-Feb-19 13:34N 50°58' E 001°50'1 0.8
2017-Feb-19 12:33N 50°58' E 001°51'1616.0
2017-Feb-19 11:33N 51°04' E 001°27'5 5.0
2017-Feb-19 10:27N 51°07' E 001°20'1213.3
2017-Feb-19 09:33N 51°02' E 001°37'10 9.6
2017-Feb-19 08:33N 50°58' E 001°51'7 7.5
2017-Feb-19 07:33N 50°59' E 001°39'1514.4
2017-Feb-19 06:32N 51°07' E 001°20'0 0.0
2017-Feb-19 05:27N 51°07' E 001°20'6 6.9
2017-Feb-19 04:33N 51°04' E 001°29'1515.3
2017-Feb-19 03:33N 50°58' E 001°51'0 0.0
2017-Feb-19 02:33N 50°58' E 001°51'1010.3
2017-Feb-19 01:33N 51°01' E 001°36'1211.0
2017-Feb-19 00:30N 51°07' E 001°20'1010.2
2017-Feb-18 23:33N 51°04' E 001°34'1211.9
2017-Feb-18 22:33N 50°58' E 001°51'4 4.2
2017-Feb-18 21:33N 50°58' E 001°44'1817.8
2017-Feb-18 20:33N 51°07' E 001°20'2 1.9
2017-Feb-18 19:33N 51°07' E 001°23'8 8.3
2017-Feb-18 18:34N 51°03' E 001°34'1211.0
2017-Feb-18 17:31N 50°58' E 001°51'3 3.7
2017-Feb-18 16:33N 50°58' E 001°45'1918.3
2017-Feb-18 15:32N 51°07' E 001°20'2 1.7
2017-Feb-18 14:33N 51°07' E 001°23'1717.5
2017-Feb-18 13:33N 50°58' E 001°47'3 2.7
2017-Feb-18 12:33N 50°58' E 001°51'1414.0
2017-Feb-18 11:33N 51°03' E 001°31'8 7.4
2017-Feb-18 10:30N 51°07' E 001°20'1010.9
2017-Feb-18 09:34N 51°03' E 001°34'1111.2
2017-Feb-18 08:32N 50°58' E 001°51'5 5.0
2017-Feb-18 07:33N 50°58' E 001°43'1716.9
2017-Feb-18 06:33N 51°07' E 001°21'0 0.3
2017-Feb-18 05:30N 51°07' E 001°20'9 9.5
2017-Feb-18 04:33N 51°04' E 001°33'1312.5
2017-Feb-18 03:33N 50°58' E 001°51'0 0.0
2017-Feb-18 02:32N 50°58' E 001°51'1515.2
2017-Feb-18 01:33N 51°04' E 001°29'7 6.4
2017-Feb-18 00:30N 51°07' E 001°20'8 8.2
2017-Feb-17 23:34N 51°06' E 001°32'1414.3
2017-Feb-17 22:33N 50°58' E 001°51'0 0.4
2017-Feb-17 21:31N 50°58' E 001°50'1616.9
2017-Feb-17 20:33N 51°04' E 001°26'5 4.5
2017-Feb-17 19:22N 51°07' E 001°20'1114.2
2017-Feb-17 18:33N 51°02' E 001°36'1010.1
2017-Feb-17 17:33N 50°58' E 001°51'8 7.9
2017-Feb-17 16:33N 50°59' E 001°38'14 7.0
2017-Feb-17 14:33N 51°07' E 001°21'1818.4
2017-Feb-17 13:34N 50°58' E 001°46'3 2.7
2017-Feb-17 12:34N 50°58' E 001°51'1717.2
2017-Feb-17 11:34N 51°04' E 001°25'4 3.6
2017-Feb-17 10:33N 51°07' E 001°21'1919.2
2017-Feb-17 09:33N 50°58' E 001°48'0 0.2
2017-Feb-17 08:33N 50°58' E 001°48'1817.7
2017-Feb-17 07:33N 51°06' E 001°23'2 2.2
2017-Feb-17 06:33N 51°07' E 001°20'0 0.0
2017-Feb-17 05:25N 51°07' E 001°20'1315.4
2017-Feb-17 04:33N 51°02' E 001°39'8 8.1
2017-Feb-17 03:31N 50°58' E 001°51'1515.5
2017-Feb-17 02:33N 51°03' E 001°28'7 6.9
2017-Feb-17 01:33N 51°07' E 001°20'0 0.1
2017-Feb-17 00:31N 51°07' E 001°20'7 6.9
2017-Feb-16 23:33N 51°06' E 001°30'1515.2
2017-Feb-16 22:33N 50°58' E 001°51'2 1.7
2017-Feb-16 21:34N 50°58' E 001°48'1514.6
2017-Feb-16 20:33N 51°04' E 001°27'5 4.7
2017-Feb-16 19:24N 51°07' E 001°20'1214.6
2017-Feb-16 18:34N 51°02' E 001°37'9 9.3
2017-Feb-16 17:33N 50°58' E 001°51'8 8.1
2017-Feb-16 16:33N 50°60' E 001°38'1411.8
2017-Feb-16 15:22N 51°07' E 001°20'3 3.8
2017-Feb-16 14:33N 51°07' E 001°25'1716.9
2017-Feb-16 13:34N 50°58' E 001°48'2 1.6
2017-Feb-16 12:32N 50°58' E 001°51'1616.2
2017-Feb-16 11:33N 51°04' E 001°28'6 5.5
2017-Feb-16 10:32N 51°07' E 001°20'1212.2
2017-Feb-16 09:33N 51°01' E 001°36'10 9.7
2017-Feb-16 08:33N 50°58' E 001°51'6 6.2
2017-Feb-16 07:34N 50°58' E 001°41'1616.0
2017-Feb-16 06:33N 51°07' E 001°20'0 0.0
2017-Feb-16 05:25N 51°07' E 001°20'1011.2
2017-Feb-16 04:33N 51°04' E 001°34'1211.9
2017-Feb-16 03:33N 50°58' E 001°51'0 0.0
2017-Feb-16 02:33N 50°58' E 001°51'1515.1
2017-Feb-16 01:33N 51°03' E 001°28'7 5.8
2017-Feb-16 00:23N 51°07' E 001°20'8 9.6
2017-Feb-15 23:34N 51°04' E 001°32'1413.6
2017-Feb-15 22:33N 50°58' E 001°51'2 2.3
2017-Feb-15 21:33N 50°58' E 001°47'1717.4
2017-Feb-15 20:33N 51°06' E 001°23'2 1.9
2017-Feb-15 19:30N 51°07' E 001°20'1616.9
2017-Feb-15 18:33N 50°59' E 001°42'6 5.5
2017-Feb-15 17:31N 50°58' E 001°51'1212.1
2017-Feb-15 16:33N 51°02' E 001°34'10 8.9
2017-Feb-15 15:26N 51°07' E 001°20'8 9.0
2017-Feb-15 14:34N 51°06' E 001°32'1413.3
2017-Feb-15 13:31N 50°58' E 001°51'2 2.4
2017-Feb-15 12:33N 50°58' E 001°47'1716.5
2017-Feb-15 11:34N 51°06' E 001°24'3 2.7
2017-Feb-15 10:27N 51°07' E 001°20'1112.3
2017-Feb-15 09:33N 51°01' E 001°35'1110.2
2017-Feb-15 08:31N 50°58' E 001°51'5 5.6
2017-Feb-15 07:33N 50°58' E 001°43'1716.5
2017-Feb-15 06:31N 51°07' E 001°20'5 2.7
2017-Feb-15 04:33N 51°06' E 001°28'1616.2
2017-Feb-15 03:33N 50°58' E 001°51'0 0.2
2017-Feb-15 02:33N 50°58' E 001°51'1514.7
2017-Feb-15 01:33N 51°02' E 001°29'8 6.2
2017-Feb-15 00:20N 51°07' E 001°20'810.0
2017-Feb-14 23:34N 51°05' E 001°32'1413.9
2017-Feb-14 22:34N 50°58' E 001°51'3 3.4
2017-Feb-14 21:33N 50°58' E 001°46'1717.2
2017-Feb-14 20:33N 51°07' E 001°22'1 1.4
2017-Feb-14 19:30N 51°07' E 001°20'1314.2
2017-Feb-14 18:34N 51°01' E 001°39'8 8.1
2017-Feb-14 17:33N 50°58' E 001°51'7 6.9
2017-Feb-14 16:34N 50°59' E 001°40'1511.7
2017-Feb-14 15:15N 51°07' E 001°20'4 6.2
2017-Feb-14 14:33N 51°06' E 001°27'1716.5
2017-Feb-14 13:33N 50°58' E 001°50'1 0.7
2017-Feb-14 12:33N 50°58' E 001°51'1515.6
2017-Feb-14 11:33N 51°03' E 001°28'6 5.9
2017-Feb-14 10:28N 51°07' E 001°20'1011.3
2017-Feb-14 09:34N 51°02' E 001°34'1111.3
2017-Feb-14 08:33N 50°58' E 001°51'6 5.8
2017-Feb-14 07:33N 50°58' E 001°42'1616.3
2017-Feb-14 06:33N 51°07' E 001°20'0 0.0
2017-Feb-14 05:28N 51°07' E 001°20'1011.1
2017-Feb-14 04:33N 51°03' E 001°35'1111.0
2017-Feb-14 03:31N 50°58' E 001°51'0 0.0
2017-Feb-14 02:33N 50°58' E 001°51'1716.8
2017-Feb-14 01:34N 51°04' E 001°26'5 4.8
2017-Feb-14 00:28N 51°07' E 001°20'1213.7
2017-Feb-13 23:33N 51°01' E 001°37'9 9.3
2017-Feb-13 22:33N 50°58' E 001°51'8 7.7
2017-Feb-13 21:33N 50°59' E 001°39'1514.8
2017-Feb-13 20:33N 51°07' E 001°20'2 2.2
2017-Feb-13 19:33N 51°07' E 001°24'1313.3
2017-Feb-13 18:34N 50°59' E 001°41'6 6.4
2017-Feb-13 17:34N 50°58' E 001°51'1313.4
2017-Feb-13 16:33N 51°02' E 001°31'9 8.3
2017-Feb-13 15:32N 51°07' E 001°20'5 4.9
2017-Feb-13 14:34N 51°07' E 001°28'1616.0
2017-Feb-13 13:34N 50°58' E 001°49'2 1.5
2017-Feb-13 12:33N 50°58' E 001°52'1616.3
2017-Feb-13 11:34N 51°04' E 001°27'6 5.6
2017-Feb-13 10:31N 51°07' E 001°20'1414.3
2017-Feb-13 09:33N 51°01' E 001°39'8 8.1
2017-Feb-13 08:33N 50°58' E 001°51'7 7.3
2017-Feb-13 07:33N 50°59' E 001°40'1515.0
2017-Feb-13 06:33N 51°07' E 001°20'0 0.0
2017-Feb-13 05:31N 51°07' E 001°20'5 5.3
2017-Feb-13 04:34N 51°06' E 001°28'1616.3
2017-Feb-13 03:34N 50°58' E 001°51'0 0.2
2017-Feb-13 02:31N 50°58' E 001°51'1414.0
2017-Feb-13 01:33N 51°01' E 001°30'9 9.0
2017-Feb-13 00:32N 51°07' E 001°20'7 7.6
2017-Feb-12 23:34N 51°04' E 001°31'1413.9
2017-Feb-12 22:32N 50°58' E 001°51'1 1.2
2017-Feb-12 21:33N 50°58' E 001°49'1515.0
2017-Feb-12 20:33N 51°03' E 001°27'6 5.3
2017-Feb-12 19:27N 51°07' E 001°20'1010.6
2017-Feb-12 18:34N 51°03' E 001°33'1212.1
2017-Feb-12 17:33N 50°58' E 001°51'5 5.1
2017-Feb-12 16:33N 50°58' E 001°43'1716.9
2017-Feb-12 15:33N 51°07' E 001°20'2 2.0
2017-Feb-12 14:33N 51°07' E 001°23'1717.4
2017-Feb-12 13:33N 50°58' E 001°47'2 2.4
2017-Feb-12 12:33N 50°58' E 001°51'1717.3
2017-Feb-12 11:33N 51°05' E 001°26'4 4.0
2017-Feb-12 10:30N 51°07' E 001°20'1617.2
2017-Feb-12 09:33N 50°59' E 001°42'5 5.4
2017-Feb-12 08:33N 50°58' E 001°51'1212.2
2017-Feb-12 07:33N 50°60' E 001°32'11 9.9
2017-Feb-12 06:29N 51°07' E 001°20'0 0.0
2017-Feb-12 05:32N 51°07' E 001°20'3 3.6
2017-Feb-12 04:33N 51°06' E 001°25'1817.9
2017-Feb-12 03:33N 50°58' E 001°51'  

Dump ship's entire track history